sensor_id;sensor_type;location;lat;lon;timestamp;P1;durP1;ratioP1;P2;durP2;ratioP2
73670;SDS011;61968;48.178;11.566;2022-12-26T00:01:23;0.93;;;0.93;;
73670;SDS011;61968;48.178;11.566;2022-12-26T00:03:51;1.58;;;1.13;;
73670;SDS011;61968;48.178;11.566;2022-12-26T00:06:22;0.93;;;0.90;;
73670;SDS011;61968;48.178;11.566;2022-12-26T00:08:50;1.33;;;1.20;;
73670;SDS011;61968;48.178;11.566;2022-12-26T00:11:18;1.30;;;1.10;;
73670;SDS011;61968;48.178;11.566;2022-12-26T00:13:45;3.35;;;1.70;;
73670;SDS011;61968;48.178;11.566;2022-12-26T00:16:13;1.15;;;0.93;;
73670;SDS011;61968;48.178;11.566;2022-12-26T00:18:41;1.83;;;1.33;;
73670;SDS011;61968;48.178;11.566;2022-12-26T00:21:10;1.50;;;1.00;;
73670;SDS011;61968;48.178;11.566;2022-12-26T00:23:38;2.30;;;1.50;;
73670;SDS011;61968;48.178;11.566;2022-12-26T00:26:05;2.05;;;1.27;;
73670;SDS011;61968;48.178;11.566;2022-12-26T00:28:35;0.73;;;0.73;;
73670;SDS011;61968;48.178;11.566;2022-12-26T00:31:02;0.70;;;0.70;;
73670;SDS011;61968;48.178;11.566;2022-12-26T00:33:30;2.17;;;0.80;;
73670;SDS011;61968;48.178;11.566;2022-12-26T00:35:59;1.35;;;0.93;;
73670;SDS011;61968;48.178;11.566;2022-12-26T00:38:29;1.70;;;0.93;;
73670;SDS011;61968;48.178;11.566;2022-12-26T00:40:55;1.65;;;0.73;;
73670;SDS011;61968;48.178;11.566;2022-12-26T00:43:22;2.05;;;1.15;;
73670;SDS011;61968;48.178;11.566;2022-12-26T00:45:48;2.90;;;1.35;;
73670;SDS011;61968;48.178;11.566;2022-12-26T00:48:15;12.02;;;4.60;;
73670;SDS011;61968;48.178;11.566;2022-12-26T00:50:44;4.95;;;2.67;;
73670;SDS011;61968;48.178;11.566;2022-12-26T00:53:11;3.28;;;1.45;;
73670;SDS011;61968;48.178;11.566;2022-12-26T00:55:39;2.00;;;1.10;;
73670;SDS011;61968;48.178;11.566;2022-12-26T00:58:05;1.58;;;0.95;;
73670;SDS011;61968;48.178;11.566;2022-12-26T01:02:58;3.15;;;1.23;;
73670;SDS011;61968;48.178;11.566;2022-12-26T01:05:24;1.17;;;1.02;;
73670;SDS011;61968;48.178;11.566;2022-12-26T01:07:51;1.10;;;0.95;;
73670;SDS011;61968;48.178;11.566;2022-12-26T01:10:18;1.42;;;1.33;;
73670;SDS011;61968;48.178;11.566;2022-12-26T01:12:46;2.13;;;0.95;;
73670;SDS011;61968;48.178;11.566;2022-12-26T01:15:12;1.10;;;1.00;;
73670;SDS011;61968;48.178;11.566;2022-12-26T01:17:40;2.08;;;0.95;;
73670;SDS011;61968;48.178;11.566;2022-12-26T01:20:07;1.50;;;1.40;;
73670;SDS011;61968;48.178;11.566;2022-12-26T01:22:34;1.30;;;1.20;;
73670;SDS011;61968;48.178;11.566;2022-12-26T01:25:02;1.17;;;1.08;;
73670;SDS011;61968;48.178;11.566;2022-12-26T01:27:29;1.60;;;1.10;;
73670;SDS011;61968;48.178;11.566;2022-12-26T01:29:56;1.42;;;1.30;;
73670;SDS011;61968;48.178;11.566;2022-12-26T01:32:23;2.33;;;0.85;;
73670;SDS011;61968;48.178;11.566;2022-12-26T01:34:49;3.05;;;1.50;;
73670;SDS011;61968;48.178;11.566;2022-12-26T01:37:19;2.00;;;1.30;;
73670;SDS011;61968;48.178;11.566;2022-12-26T01:39:46;1.90;;;1.20;;
73670;SDS011;61968;48.178;11.566;2022-12-26T01:47:44;2.33;;;1.25;;
73670;SDS011;61968;48.178;11.566;2022-12-26T01:50:18;1.58;;;1.00;;
73670;SDS011;61968;48.178;11.566;2022-12-26T01:52:51;1.00;;;0.90;;
73670;SDS011;61968;48.178;11.566;2022-12-26T01:55:20;1.13;;;1.00;;
73670;SDS011;61968;48.178;11.566;2022-12-26T01:57:49;2.67;;;1.45;;
73670;SDS011;61968;48.178;11.566;2022-12-26T02:00:22;2.28;;;1.30;;
73670;SDS011;61968;48.178;11.566;2022-12-26T02:02:49;1.83;;;1.13;;
73670;SDS011;61968;48.178;11.566;2022-12-26T02:05:33;4.30;;;1.20;;
73670;SDS011;61968;48.178;11.566;2022-12-26T02:08:00;1.80;;;1.15;;
73670;SDS011;61968;48.178;11.566;2022-12-26T02:10:30;1.00;;;0.90;;
73670;SDS011;61968;48.178;11.566;2022-12-26T02:13:01;2.53;;;1.13;;
73670;SDS011;61968;48.178;11.566;2022-12-26T02:15:29;1.25;;;0.90;;
73670;SDS011;61968;48.178;11.566;2022-12-26T02:17:56;1.90;;;0.90;;
73670;SDS011;61968;48.178;11.566;2022-12-26T02:20:23;2.22;;;1.02;;
73670;SDS011;61968;48.178;11.566;2022-12-26T02:23:00;2.22;;;0.90;;
73670;SDS011;61968;48.178;11.566;2022-12-26T02:31:47;1.38;;;0.85;;
73670;SDS011;61968;48.178;11.566;2022-12-26T02:34:23;2.15;;;0.80;;
73670;SDS011;61968;48.178;11.566;2022-12-26T02:37:02;1.75;;;0.80;;
73670;SDS011;61968;48.178;11.566;2022-12-26T02:39:44;1.73;;;1.00;;
73670;SDS011;61968;48.178;11.566;2022-12-26T02:42:21;1.30;;;0.80;;
73670;SDS011;61968;48.178;11.566;2022-12-26T02:44:58;1.70;;;1.13;;
73670;SDS011;61968;48.178;11.566;2022-12-26T02:47:51;0.98;;;0.90;;
73670;SDS011;61968;48.178;11.566;2022-12-26T02:50:23;1.98;;;0.93;;
73670;SDS011;61968;48.178;11.566;2022-12-26T02:53:16;1.52;;;0.98;;
73670;SDS011;61968;48.178;11.566;2022-12-26T02:56:05;0.93;;;0.93;;
73670;SDS011;61968;48.178;11.566;2022-12-26T02:58:57;1.35;;;0.88;;
73670;SDS011;61968;48.178;11.566;2022-12-26T03:01:45;1.40;;;1.02;;
73670;SDS011;61968;48.178;11.566;2022-12-26T03:04:34;0.90;;;0.80;;
73670;SDS011;61968;48.178;11.566;2022-12-26T03:07:22;1.70;;;0.85;;
73670;SDS011;61968;48.178;11.566;2022-12-26T03:10:13;0.70;;;0.70;;
73670;SDS011;61968;48.178;11.566;2022-12-26T03:13:02;0.93;;;0.90;;
73670;SDS011;61968;48.178;11.566;2022-12-26T03:15:40;2.10;;;0.88;;
73670;SDS011;61968;48.178;11.566;2022-12-26T03:18:28;0.90;;;0.70;;
73670;SDS011;61968;48.178;11.566;2022-12-26T03:20:57;0.75;;;0.75;;
73670;SDS011;61968;48.178;11.566;2022-12-26T03:23:25;0.80;;;0.80;;
73670;SDS011;61968;48.178;11.566;2022-12-26T03:25:54;0.82;;;0.82;;
73670;SDS011;61968;48.178;11.566;2022-12-26T03:28:40;0.85;;;0.85;;
73670;SDS011;61968;48.178;11.566;2022-12-26T03:31:09;0.95;;;0.85;;
73670;SDS011;61968;48.178;11.566;2022-12-26T03:33:37;0.52;;;0.52;;
73670;SDS011;61968;48.178;11.566;2022-12-26T03:36:28;0.70;;;0.70;;
73670;SDS011;61968;48.178;11.566;2022-12-26T03:39:07;0.85;;;0.65;;
73670;SDS011;61968;48.178;11.566;2022-12-26T03:41:41;0.63;;;0.63;;
73670;SDS011;61968;48.178;11.566;2022-12-26T03:44:35;0.73;;;0.55;;
73670;SDS011;61968;48.178;11.566;2022-12-26T03:50:25;0.50;;;0.50;;
73670;SDS011;61968;48.178;11.566;2022-12-26T03:53:18;0.68;;;0.50;;
73670;SDS011;61968;48.178;11.566;2022-12-26T03:56:07;1.92;;;0.60;;
73670;SDS011;61968;48.178;11.566;2022-12-26T03:58:56;0.82;;;0.30;;
73670;SDS011;61968;48.178;11.566;2022-12-26T04:01:46;0.85;;;0.85;;
73670;SDS011;61968;48.178;11.566;2022-12-26T04:04:33;2.70;;;0.77;;
73670;SDS011;61968;48.178;11.566;2022-12-26T04:07:24;0.80;;;0.80;;
73670;SDS011;61968;48.178;11.566;2022-12-26T04:10:17;0.85;;;0.30;;
73670;SDS011;61968;48.178;11.566;2022-12-26T04:13:05;0.57;;;0.50;;
73670;SDS011;61968;48.178;11.566;2022-12-26T04:16:00;1.20;;;0.60;;
73670;SDS011;61968;48.178;11.566;2022-12-26T04:18:51;1.05;;;0.80;;
73670;SDS011;61968;48.178;11.566;2022-12-26T04:21:40;2.22;;;0.70;;
73670;SDS011;61968;48.178;11.566;2022-12-26T04:24:29;0.40;;;0.40;;
73670;SDS011;61968;48.178;11.566;2022-12-26T04:27:18;0.57;;;0.57;;
73670;SDS011;61968;48.178;11.566;2022-12-26T04:30:06;1.23;;;0.70;;
73670;SDS011;61968;48.178;11.566;2022-12-26T04:32:52;0.65;;;0.40;;
73670;SDS011;61968;48.178;11.566;2022-12-26T04:35:44;0.40;;;0.40;;
73670;SDS011;61968;48.178;11.566;2022-12-26T04:38:33;0.63;;;0.60;;
73670;SDS011;61968;48.178;11.566;2022-12-26T04:41:23;0.60;;;0.60;;
73670;SDS011;61968;48.178;11.566;2022-12-26T04:44:11;0.60;;;0.60;;
73670;SDS011;61968;48.178;11.566;2022-12-26T04:46:39;3.15;;;0.70;;
73670;SDS011;61968;48.178;11.566;2022-12-26T04:49:09;1.20;;;0.70;;
73670;SDS011;61968;48.178;11.566;2022-12-26T04:51:55;0.50;;;0.50;;
73670;SDS011;61968;48.178;11.566;2022-12-26T04:54:23;1.50;;;0.63;;
73670;SDS011;61968;48.178;11.566;2022-12-26T04:56:50;1.48;;;0.60;;
73670;SDS011;61968;48.178;11.566;2022-12-26T04:59:19;0.60;;;0.60;;
73670;SDS011;61968;48.178;11.566;2022-12-26T05:01:46;1.73;;;0.60;;
73670;SDS011;61968;48.178;11.566;2022-12-26T05:04:30;0.43;;;0.40;;
73670;SDS011;61968;48.178;11.566;2022-12-26T05:07:15;1.45;;;0.60;;
73670;SDS011;61968;48.178;11.566;2022-12-26T05:10:03;1.20;;;0.68;;
73670;SDS011;61968;48.178;11.566;2022-12-26T05:12:30;0.52;;;0.52;;
73670;SDS011;61968;48.178;11.566;2022-12-26T05:14:58;0.75;;;0.75;;
73670;SDS011;61968;48.178;11.566;2022-12-26T05:17:25;1.05;;;0.77;;
73670;SDS011;61968;48.178;11.566;2022-12-26T05:20:10;0.60;;;0.60;;
73670;SDS011;61968;48.178;11.566;2022-12-26T05:23:10;0.88;;;0.88;;
73670;SDS011;61968;48.178;11.566;2022-12-26T05:28:47;1.13;;;0.65;;
73670;SDS011;61968;48.178;11.566;2022-12-26T05:31:18;0.57;;;0.57;;
73670;SDS011;61968;48.178;11.566;2022-12-26T05:33:44;0.35;;;0.35;;
73670;SDS011;61968;48.178;11.566;2022-12-26T05:36:29;0.75;;;0.50;;
73670;SDS011;61968;48.178;11.566;2022-12-26T05:38:58;0.70;;;0.55;;
73670;SDS011;61968;48.178;11.566;2022-12-26T05:41:25;0.60;;;0.60;;
73670;SDS011;61968;48.178;11.566;2022-12-26T05:43:52;0.75;;;0.75;;
73670;SDS011;61968;48.178;11.566;2022-12-26T05:48:46;1.40;;;0.70;;
73670;SDS011;61968;48.178;11.566;2022-12-26T05:53:39;1.65;;;0.57;;
73670;SDS011;61968;48.178;11.566;2022-12-26T05:58:33;1.08;;;0.60;;
73670;SDS011;61968;48.178;11.566;2022-12-26T06:01:03;0.80;;;0.80;;
73670;SDS011;61968;48.178;11.566;2022-12-26T06:03:35;0.73;;;0.60;;
73670;SDS011;61968;48.178;11.566;2022-12-26T06:06:02;1.77;;;0.80;;
73670;SDS011;61968;48.178;11.566;2022-12-26T06:08:29;2.50;;;0.77;;
73670;SDS011;61968;48.178;11.566;2022-12-26T06:10:55;0.65;;;0.52;;
73670;SDS011;61968;48.178;11.566;2022-12-26T06:13:22;0.75;;;0.60;;
73670;SDS011;61968;48.178;11.566;2022-12-26T06:15:48;0.90;;;0.70;;
73670;SDS011;61968;48.178;11.566;2022-12-26T06:20:42;1.38;;;0.80;;
73670;SDS011;61968;48.178;11.566;2022-12-26T06:23:09;1.00;;;0.80;;
73670;SDS011;61968;48.178;11.566;2022-12-26T06:28:02;3.88;;;1.50;;
73670;SDS011;61968;48.178;11.566;2022-12-26T06:30:28;0.90;;;0.90;;
73670;SDS011;61968;48.178;11.566;2022-12-26T06:35:21;0.55;;;0.55;;
73670;SDS011;61968;48.178;11.566;2022-12-26T06:40:15;1.30;;;0.90;;
73670;SDS011;61968;48.178;11.566;2022-12-26T06:42:41;1.13;;;0.95;;
73670;SDS011;61968;48.178;11.566;2022-12-26T06:47:35;1.20;;;1.10;;
73670;SDS011;61968;48.178;11.566;2022-12-26T06:52:28;1.08;;;0.90;;
73670;SDS011;61968;48.178;11.566;2022-12-26T06:57:22;1.10;;;0.80;;
73670;SDS011;61968;48.178;11.566;2022-12-26T06:59:49;1.17;;;0.93;;
73670;SDS011;61968;48.178;11.566;2022-12-26T07:04:42;2.20;;;1.10;;
73670;SDS011;61968;48.178;11.566;2022-12-26T07:07:08;1.20;;;1.00;;
73670;SDS011;61968;48.178;11.566;2022-12-26T07:12:02;0.60;;;0.60;;
73670;SDS011;61968;48.178;11.566;2022-12-26T07:14:29;2.03;;;1.27;;
73670;SDS011;61968;48.178;11.566;2022-12-26T07:16:55;2.80;;;1.08;;
73670;SDS011;61968;48.178;11.566;2022-12-26T07:19:22;1.10;;;0.93;;
73670;SDS011;61968;48.178;11.566;2022-12-26T07:21:48;1.40;;;1.00;;
73670;SDS011;61968;48.178;11.566;2022-12-26T07:26:42;8.30;;;2.08;;
73670;SDS011;61968;48.178;11.566;2022-12-26T07:29:11;1.48;;;0.80;;
73670;SDS011;61968;48.178;11.566;2022-12-26T07:31:37;1.38;;;1.27;;
73670;SDS011;61968;48.178;11.566;2022-12-26T07:34:04;2.00;;;1.00;;
73670;SDS011;61968;48.178;11.566;2022-12-26T07:38:57;3.58;;;1.10;;
73670;SDS011;61968;48.178;11.566;2022-12-26T07:44:07;1.05;;;0.82;;
73670;SDS011;61968;48.178;11.566;2022-12-26T07:46:35;1.02;;;0.63;;
73670;SDS011;61968;48.178;11.566;2022-12-26T07:49:02;1.20;;;1.05;;
73670;SDS011;61968;48.178;11.566;2022-12-26T07:51:29;0.73;;;0.60;;
73670;SDS011;61968;48.178;11.566;2022-12-26T07:56:21;1.58;;;0.90;;
73670;SDS011;61968;48.178;11.566;2022-12-26T07:58:48;1.85;;;0.90;;
73670;SDS011;61968;48.178;11.566;2022-12-26T08:01:16;0.73;;;0.70;;
73670;SDS011;61968;48.178;11.566;2022-12-26T08:03:44;1.15;;;0.70;;
73670;SDS011;61968;48.178;11.566;2022-12-26T08:06:13;3.03;;;0.80;;
73670;SDS011;61968;48.178;11.566;2022-12-26T08:08:39;0.80;;;0.80;;
73670;SDS011;61968;48.178;11.566;2022-12-26T08:13:33;1.00;;;0.70;;
73670;SDS011;61968;48.178;11.566;2022-12-26T08:16:03;0.88;;;0.77;;
73670;SDS011;61968;48.178;11.566;2022-12-26T08:18:31;0.90;;;0.70;;
73670;SDS011;61968;48.178;11.566;2022-12-26T08:20:59;0.75;;;0.75;;
73670;SDS011;61968;48.178;11.566;2022-12-26T08:23:25;0.88;;;0.85;;
73670;SDS011;61968;48.178;11.566;2022-12-26T08:28:18;1.00;;;0.85;;
73670;SDS011;61968;48.178;11.566;2022-12-26T08:30:44;1.52;;;1.02;;
73670;SDS011;61968;48.178;11.566;2022-12-26T08:33:11;1.05;;;0.90;;
73670;SDS011;61968;48.178;11.566;2022-12-26T08:35:38;1.23;;;1.13;;
73670;SDS011;61968;48.178;11.566;2022-12-26T08:38:06;0.63;;;0.63;;
73670;SDS011;61968;48.178;11.566;2022-12-26T08:40:32;2.13;;;1.40;;
73670;SDS011;61968;48.178;11.566;2022-12-26T08:42:59;0.93;;;0.90;;
73670;SDS011;61968;48.178;11.566;2022-12-26T08:45:25;1.02;;;0.85;;
73670;SDS011;61968;48.178;11.566;2022-12-26T08:47:53;1.05;;;1.00;;
73670;SDS011;61968;48.178;11.566;2022-12-26T08:50:20;0.98;;;0.75;;
73670;SDS011;61968;48.178;11.566;2022-12-26T08:52:46;1.55;;;1.17;;
73670;SDS011;61968;48.178;11.566;2022-12-26T08:57:40;1.80;;;0.95;;
73670;SDS011;61968;48.178;11.566;2022-12-26T09:02:34;4.35;;;0.90;;
73670;SDS011;61968;48.178;11.566;2022-12-26T09:07:26;2.67;;;0.95;;
73670;SDS011;61968;48.178;11.566;2022-12-26T09:12:20;1.23;;;1.13;;
73670;SDS011;61968;48.178;11.566;2022-12-26T09:14:47;3.42;;;1.20;;
73670;SDS011;61968;48.178;11.566;2022-12-26T09:17:14;0.88;;;0.88;;
73670;SDS011;61968;48.178;11.566;2022-12-26T09:22:06;1.55;;;0.95;;
73670;SDS011;61968;48.178;11.566;2022-12-26T09:24:51;1.17;;;1.08;;
73670;SDS011;61968;48.178;11.566;2022-12-26T09:27:17;1.70;;;1.20;;
73670;SDS011;61968;48.178;11.566;2022-12-26T09:29:46;1.15;;;1.05;;
73670;SDS011;61968;48.178;11.566;2022-12-26T09:32:13;1.27;;;0.80;;
73670;SDS011;61968;48.178;11.566;2022-12-26T09:34:39;2.25;;;1.02;;
73670;SDS011;61968;48.178;11.566;2022-12-26T09:37:05;1.98;;;1.42;;
73670;SDS011;61968;48.178;11.566;2022-12-26T09:39:32;1.52;;;1.13;;
73670;SDS011;61968;48.178;11.566;2022-12-26T09:42:00;3.20;;;1.50;;
73670;SDS011;61968;48.178;11.566;2022-12-26T09:44:36;1.95;;;0.70;;
73670;SDS011;61968;48.178;11.566;2022-12-26T09:47:14;1.30;;;1.20;;
73670;SDS011;61968;48.178;11.566;2022-12-26T09:49:52;1.33;;;1.00;;
73670;SDS011;61968;48.178;11.566;2022-12-26T09:52:23;2.15;;;0.77;;
73670;SDS011;61968;48.178;11.566;2022-12-26T09:55:00;1.75;;;1.10;;
73670;SDS011;61968;48.178;11.566;2022-12-26T09:57:33;1.05;;;0.80;;
73670;SDS011;61968;48.178;11.566;2022-12-26T10:00:05;1.63;;;0.85;;
73670;SDS011;61968;48.178;11.566;2022-12-26T10:02:33;0.90;;;0.90;;
73670;SDS011;61968;48.178;11.566;2022-12-26T10:05:00;2.03;;;1.38;;
73670;SDS011;61968;48.178;11.566;2022-12-26T10:07:28;1.40;;;0.88;;
73670;SDS011;61968;48.178;11.566;2022-12-26T10:10:07;1.33;;;0.90;;
73670;SDS011;61968;48.178;11.566;2022-12-26T10:12:37;1.30;;;1.20;;
73670;SDS011;61968;48.178;11.566;2022-12-26T10:15:13;1.13;;;1.00;;
73670;SDS011;61968;48.178;11.566;2022-12-26T10:17:51;3.25;;;1.10;;
73670;SDS011;61968;48.178;11.566;2022-12-26T10:20:24;1.10;;;0.98;;
73670;SDS011;61968;48.178;11.566;2022-12-26T10:23:02;1.35;;;0.80;;
73670;SDS011;61968;48.178;11.566;2022-12-26T10:25:38;1.17;;;1.00;;
73670;SDS011;61968;48.178;11.566;2022-12-26T10:28:09;1.98;;;1.08;;
73670;SDS011;61968;48.178;11.566;2022-12-26T10:30:42;1.15;;;1.00;;
73670;SDS011;61968;48.178;11.566;2022-12-26T10:33:13;1.00;;;0.85;;
73670;SDS011;61968;48.178;11.566;2022-12-26T10:35:44;0.88;;;0.88;;
73670;SDS011;61968;48.178;11.566;2022-12-26T10:38:12;1.50;;;0.95;;
73670;SDS011;61968;48.178;11.566;2022-12-26T10:40:45;1.27;;;0.90;;
73670;SDS011;61968;48.178;11.566;2022-12-26T10:43:17;0.70;;;0.70;;
73670;SDS011;61968;48.178;11.566;2022-12-26T10:45:52;1.08;;;0.90;;
73670;SDS011;61968;48.178;11.566;2022-12-26T10:48:33;4.32;;;0.95;;
73670;SDS011;61968;48.178;11.566;2022-12-26T10:51:00;1.08;;;0.90;;
73670;SDS011;61968;48.178;11.566;2022-12-26T10:53:26;1.48;;;1.38;;
73670;SDS011;61968;48.178;11.566;2022-12-26T10:55:53;1.02;;;0.93;;
73670;SDS011;61968;48.178;11.566;2022-12-26T10:58:24;0.98;;;0.40;;
73670;SDS011;61968;48.178;11.566;2022-12-26T11:00:55;2.60;;;0.90;;
73670;SDS011;61968;48.178;11.566;2022-12-26T11:03:45;2.05;;;1.00;;
73670;SDS011;61968;48.178;11.566;2022-12-26T11:06:19;0.98;;;0.65;;
73670;SDS011;61968;48.178;11.566;2022-12-26T11:08:49;1.38;;;0.70;;
73670;SDS011;61968;48.178;11.566;2022-12-26T11:11:18;0.73;;;0.70;;
73670;SDS011;61968;48.178;11.566;2022-12-26T11:13:48;3.50;;;1.38;;
73670;SDS011;61968;48.178;11.566;2022-12-26T11:16:22;0.90;;;0.90;;
73670;SDS011;61968;48.178;11.566;2022-12-26T11:18:52;2.80;;;1.23;;
73670;SDS011;61968;48.178;11.566;2022-12-26T11:21:19;1.40;;;0.95;;
73670;SDS011;61968;48.178;11.566;2022-12-26T11:23:50;1.73;;;1.40;;
73670;SDS011;61968;48.178;11.566;2022-12-26T11:26:21;2.90;;;1.10;;
73670;SDS011;61968;48.178;11.566;2022-12-26T11:29:03;1.55;;;1.00;;
73670;SDS011;61968;48.178;11.566;2022-12-26T11:31:31;3.67;;;1.20;;
73670;SDS011;61968;48.178;11.566;2022-12-26T11:33:59;1.73;;;1.13;;
73670;SDS011;61968;48.178;11.566;2022-12-26T11:36:32;0.70;;;0.70;;
73670;SDS011;61968;48.178;11.566;2022-12-26T11:39:07;0.95;;;0.95;;
73670;SDS011;61968;48.178;11.566;2022-12-26T11:41:47;2.70;;;1.00;;
73670;SDS011;61968;48.178;11.566;2022-12-26T11:44:15;0.90;;;0.75;;
73670;SDS011;61968;48.178;11.566;2022-12-26T11:46:47;0.82;;;0.82;;
73670;SDS011;61968;48.178;11.566;2022-12-26T11:49:18;0.90;;;0.85;;
73670;SDS011;61968;48.178;11.566;2022-12-26T11:51:48;5.13;;;3.17;;
73670;SDS011;61968;48.178;11.566;2022-12-26T11:54:34;0.80;;;0.80;;
73670;SDS011;61968;48.178;11.566;2022-12-26T11:57:15;4.55;;;2.08;;
73670;SDS011;61968;48.178;11.566;2022-12-26T11:59:44;0.60;;;0.60;;
73670;SDS011;61968;48.178;11.566;2022-12-26T12:02:23;1.02;;;1.02;;
73670;SDS011;61968;48.178;11.566;2022-12-26T12:04:53;2.30;;;1.05;;
73670;SDS011;61968;48.178;11.566;2022-12-26T12:07:28;1.05;;;0.95;;
73670;SDS011;61968;48.178;11.566;2022-12-26T12:10:07;1.30;;;1.20;;
73670;SDS011;61968;48.178;11.566;2022-12-26T12:12:52;3.72;;;1.65;;
73670;SDS011;61968;48.178;11.566;2022-12-26T12:15:27;2.20;;;1.77;;
73670;SDS011;61968;48.178;11.566;2022-12-26T12:18:00;1.52;;;1.17;;
73670;SDS011;61968;48.178;11.566;2022-12-26T12:23:08;2.47;;;1.02;;
73670;SDS011;61968;48.178;11.566;2022-12-26T12:25:51;2.65;;;1.30;;
73670;SDS011;61968;48.178;11.566;2022-12-26T12:28:37;1.63;;;1.27;;
73670;SDS011;61968;48.178;11.566;2022-12-26T12:31:19;3.33;;;1.40;;
73670;SDS011;61968;48.178;11.566;2022-12-26T12:33:55;2.55;;;1.98;;
73670;SDS011;61968;48.178;11.566;2022-12-26T12:36:34;1.63;;;1.30;;
73670;SDS011;61968;48.178;11.566;2022-12-26T12:44:28;3.85;;;2.03;;
73670;SDS011;61968;48.178;11.566;2022-12-26T12:47:02;1.75;;;1.50;;
73670;SDS011;61968;48.178;11.566;2022-12-26T12:52:18;2.70;;;1.90;;
73670;SDS011;61968;48.178;11.566;2022-12-26T12:55:09;4.68;;;1.75;;
73670;SDS011;61968;48.178;11.566;2022-12-26T12:57:49;6.05;;;2.03;;
73670;SDS011;61968;48.178;11.566;2022-12-26T13:00:20;1.63;;;1.30;;
73670;SDS011;61968;48.178;11.566;2022-12-26T13:02:50;2.72;;;1.60;;
73670;SDS011;61968;48.178;11.566;2022-12-26T13:05:26;1.63;;;1.05;;
73670;SDS011;61968;48.178;11.566;2022-12-26T13:08:03;2.75;;;1.70;;
73670;SDS011;61968;48.178;11.566;2022-12-26T13:10:33;2.80;;;1.40;;
73670;SDS011;61968;48.178;11.566;2022-12-26T13:13:10;3.63;;;1.50;;
73670;SDS011;61968;48.178;11.566;2022-12-26T13:15:44;2.28;;;1.75;;
73670;SDS011;61968;48.178;11.566;2022-12-26T13:18:15;5.05;;;1.75;;
73670;SDS011;61968;48.178;11.566;2022-12-26T13:20:47;1.67;;;1.58;;
73670;SDS011;61968;48.178;11.566;2022-12-26T13:23:21;2.90;;;1.98;;
73670;SDS011;61968;48.178;11.566;2022-12-26T13:26:11;5.03;;;1.95;;
73670;SDS011;61968;48.178;11.566;2022-12-26T13:28:54;2.25;;;1.60;;
73670;SDS011;61968;48.178;11.566;2022-12-26T13:31:30;2.03;;;1.83;;
73670;SDS011;61968;48.178;11.566;2022-12-26T13:33:59;5.55;;;2.35;;
73670;SDS011;61968;48.178;11.566;2022-12-26T13:36:33;6.50;;;2.53;;
73670;SDS011;61968;48.178;11.566;2022-12-26T13:41:55;4.70;;;2.22;;
73670;SDS011;61968;48.178;11.566;2022-12-26T13:44:42;2.00;;;1.52;;
73670;SDS011;61968;48.178;11.566;2022-12-26T13:49:57;3.25;;;1.98;;
73670;SDS011;61968;48.178;11.566;2022-12-26T13:52:39;7.28;;;2.97;;
73670;SDS011;61968;48.178;11.566;2022-12-26T13:58:10;2.22;;;2.03;;
73670;SDS011;61968;48.178;11.566;2022-12-26T14:00:52;2.22;;;1.65;;
73670;SDS011;61968;48.178;11.566;2022-12-26T14:03:26;8.07;;;2.00;;
73670;SDS011;61968;48.178;11.566;2022-12-26T14:06:12;4.05;;;1.83;;
73670;SDS011;61968;48.178;11.566;2022-12-26T14:08:56;2.97;;;2.20;;
73670;SDS011;61968;48.178;11.566;2022-12-26T14:11:36;3.65;;;2.03;;
73670;SDS011;61968;48.178;11.566;2022-12-26T14:14:15;2.83;;;1.90;;
73670;SDS011;61968;48.178;11.566;2022-12-26T14:16:50;3.67;;;2.05;;
73670;SDS011;61968;48.178;11.566;2022-12-26T14:19:28;2.92;;;2.38;;
73670;SDS011;61968;48.178;11.566;2022-12-26T14:22:05;1.45;;;1.35;;
73670;SDS011;61968;48.178;11.566;2022-12-26T14:24:41;2.50;;;1.70;;
73670;SDS011;61968;48.178;11.566;2022-12-26T14:27:21;3.80;;;2.00;;
73670;SDS011;61968;48.178;11.566;2022-12-26T14:29:54;5.07;;;2.25;;
73670;SDS011;61968;48.178;11.566;2022-12-26T14:32:33;2.78;;;1.90;;
73670;SDS011;61968;48.178;11.566;2022-12-26T14:35:10;2.17;;;1.63;;
73670;SDS011;61968;48.178;11.566;2022-12-26T14:37:47;4.32;;;1.67;;
73670;SDS011;61968;48.178;11.566;2022-12-26T14:40:24;1.77;;;1.60;;
73670;SDS011;61968;48.178;11.566;2022-12-26T14:45:52;2.72;;;1.80;;
73670;SDS011;61968;48.178;11.566;2022-12-26T14:48:38;7.53;;;1.95;;
73670;SDS011;61968;48.178;11.566;2022-12-26T14:54:12;3.10;;;1.40;;
73670;SDS011;61968;48.178;11.566;2022-12-26T14:56:46;2.65;;;1.98;;
73670;SDS011;61968;48.178;11.566;2022-12-26T14:59:26;3.50;;;1.80;;
73670;SDS011;61968;48.178;11.566;2022-12-26T15:01:59;2.60;;;1.63;;
73670;SDS011;61968;48.178;11.566;2022-12-26T15:04:39;7.28;;;1.48;;
73670;SDS011;61968;48.178;11.566;2022-12-26T15:10:30;2.40;;;1.42;;
73670;SDS011;61968;48.178;11.566;2022-12-26T15:13:25;2.05;;;1.45;;
73670;SDS011;61968;48.178;11.566;2022-12-26T15:16:17;5.10;;;1.38;;
73670;SDS011;61968;48.178;11.566;2022-12-26T15:19:14;2.22;;;1.45;;
73670;SDS011;61968;48.178;11.566;2022-12-26T15:22:20;1.67;;;1.15;;
73670;SDS011;61968;48.178;11.566;2022-12-26T15:28:21;1.42;;;1.30;;
73670;SDS011;61968;48.178;11.566;2022-12-26T15:33:51;1.50;;;1.20;;
73670;SDS011;61968;48.178;11.566;2022-12-26T15:36:25;3.22;;;2.20;;
73670;SDS011;61968;48.178;11.566;2022-12-26T15:39:03;2.70;;;1.13;;
73670;SDS011;61968;48.178;11.566;2022-12-26T15:41:42;1.38;;;1.27;;
73670;SDS011;61968;48.178;11.566;2022-12-26T15:44:15;2.35;;;1.20;;
73670;SDS011;61968;48.178;11.566;2022-12-26T15:46:49;2.33;;;0.80;;
73670;SDS011;61968;48.178;11.566;2022-12-26T15:49:37;1.55;;;1.23;;
73670;SDS011;61968;48.178;11.566;2022-12-26T15:52:17;2.20;;;1.10;;
73670;SDS011;61968;48.178;11.566;2022-12-26T15:57:52;1.15;;;0.82;;
73670;SDS011;61968;48.178;11.566;2022-12-26T16:00:23;1.00;;;0.90;;
73670;SDS011;61968;48.178;11.566;2022-12-26T16:03:09;3.50;;;1.08;;
73670;SDS011;61968;48.178;11.566;2022-12-26T16:05:49;1.35;;;1.00;;
73670;SDS011;61968;48.178;11.566;2022-12-26T16:08:28;0.95;;;0.80;;
73670;SDS011;61968;48.178;11.566;2022-12-26T16:11:14;1.25;;;1.00;;
73670;SDS011;61968;48.178;11.566;2022-12-26T16:13:55;0.70;;;0.60;;
73670;SDS011;61968;48.178;11.566;2022-12-26T16:16:25;2.25;;;0.93;;
73670;SDS011;61968;48.178;11.566;2022-12-26T16:18:54;1.30;;;0.43;;
73670;SDS011;61968;48.178;11.566;2022-12-26T16:21:23;1.20;;;0.60;;
73670;SDS011;61968;48.178;11.566;2022-12-26T16:24:06;0.68;;;0.40;;
73670;SDS011;61968;48.178;11.566;2022-12-26T16:26:38;1.17;;;0.68;;
73670;SDS011;61968;48.178;11.566;2022-12-26T16:29:08;0.35;;;0.35;;
73670;SDS011;61968;48.178;11.566;2022-12-26T16:31:40;0.40;;;0.40;;
73670;SDS011;61968;48.178;11.566;2022-12-26T16:34:10;0.30;;;0.30;;
73670;SDS011;61968;48.178;11.566;2022-12-26T16:36:42;0.80;;;0.50;;
73670;SDS011;61968;48.178;11.566;2022-12-26T16:39:09;0.40;;;0.40;;
73670;SDS011;61968;48.178;11.566;2022-12-26T16:41:39;1.77;;;0.68;;
73670;SDS011;61968;48.178;11.566;2022-12-26T16:44:26;0.40;;;0.40;;
73670;SDS011;61968;48.178;11.566;2022-12-26T16:46:53;0.50;;;0.50;;
73670;SDS011;61968;48.178;11.566;2022-12-26T16:49:21;0.88;;;0.73;;
73670;SDS011;61968;48.178;11.566;2022-12-26T16:51:52;1.45;;;0.60;;
73670;SDS011;61968;48.178;11.566;2022-12-26T16:54:34;0.82;;;0.45;;
73670;SDS011;61968;48.178;11.566;2022-12-26T16:57:04;3.03;;;0.80;;
73670;SDS011;61968;48.178;11.566;2022-12-26T16:59:36;0.55;;;0.40;;
73670;SDS011;61968;48.178;11.566;2022-12-26T17:02:12;0.80;;;0.73;;
73670;SDS011;61968;48.178;11.566;2022-12-26T17:04:47;1.85;;;1.30;;
73670;SDS011;61968;48.178;11.566;2022-12-26T17:07:17;0.47;;;0.45;;